Time;durP1;ratioP1;P1;durP2;ratioP2;P2;SDS_P1;SDS_P2;PMS_P1;PMS_P2;Temp;Humidity;BMP_temperature;BMP_pressure;BME280_temperature;BME280_humidity;BME280_pressure;Samples;Min_cycle;Max_cycle;Signal;HPM_P1;HPM_P2
2021/07/07 00:00:20;;;;;;;;;;;;;;;28.67;39.11;97169.53;5071881;28;1375;-54
2021/07/07 00:02:45;;;;;;;;;;;;;;;28.79;39.00;97186.09;5072334;28;1346;-55
2021/07/07 00:05:10;;;;;;;;;;;;;;;28.73;39.00;97179.56;5069236;28;1614;-51
2021/07/07 00:07:36;;;;;;;;;;;;;;;28.68;38.74;97183.69;5070880;28;1975;-53
2021/07/07 00:10:01;;;;;;;;;;;;;;;28.76;39.03;97189.91;5071066;28;1100;-54
2021/07/07 00:12:26;;;;;;;;;;;;;;;28.69;38.92;97202.09;5071698;28;1499;-55
2021/07/07 00:14:51;;;;;;;;;;;;;;;28.77;38.83;97204.84;5071286;28;1641;-55
2021/07/07 00:17:16;;;;;;;;;;;;;;;28.72;39.05;97198.31;5071663;28;1342;-54
2021/07/07 00:19:42;;;;;;;;;;;;;;;28.79;39.07;97192.25;5070722;28;1566;-55
2021/07/07 00:22:07;;;;;;;;;;;;;;;28.74;39.06;97186.53;5071096;28;1290;-55
2021/07/07 00:24:32;;;;;;;;;;;;;;;28.78;38.89;97185.28;5071594;28;1156;-55
2021/07/07 00:26:57;;;;;;;;;;;;;;;28.70;39.23;97189.66;5069585;28;1985;-54
2021/07/07 00:29:22;;;;;;;;;;;;;;;28.68;39.39;97194.28;5070745;28;1117;-54
2021/07/07 00:31:48;;;;;;;;;;;;;;;28.61;39.31;97192.22;5071483;28;1271;-55
2021/07/07 00:34:13;;;;;;;;;;;;;;;28.71;39.02;97199.28;5070962;28;1506;-55
2021/07/07 00:36:38;;;;;;;;;;;;;;;28.96;38.47;97197.75;5071470;28;1455;-54
2021/07/07 00:39:03;;;;;;;;;;;;;;;28.79;38.64;97199.38;5071255;28;1480;-54
2021/07/07 00:41:29;;;;;;;;;;;;;;;28.77;38.96;97196.88;5070174;28;1228;-53
2021/07/07 00:43:54;;;;;;;;;;;;;;;28.76;38.55;97205.00;5068878;28;1622;-54
2021/07/07 00:46:19;;;;;;;;;;;;;;;28.63;38.95;97206.16;5070832;28;1236;-54
2021/07/07 00:48:46;;;;;;;;;;;;;;;28.77;38.99;97211.97;5068601;28;1895;-54
2021/07/07 00:51:11;;;;;;;;;;;;;;;28.77;38.83;97204.00;5071513;28;1222;-55
2021/07/07 00:53:38;;;;;;;;;;;;;;;28.76;38.96;97208.47;5071657;28;1315;-56
2021/07/07 00:56:03;;;;;;;;;;;;;;;28.77;38.79;97207.50;5060664;28;1378;-54
2021/07/07 00:58:28;;;;;;;;;;;;;;;28.76;38.97;97212.97;5056313;28;1683;-55
2021/07/07 01:00:54;;;;;;;;;;;;;;;28.69;39.28;97214.53;5066133;28;1474;-51
2021/07/07 01:03:19;;;;;;;;;;;;;;;28.74;38.85;97207.78;5054591;28;1606;-54
2021/07/07 01:05:44;;;;;;;;;;;;;;;28.78;39.12;97216.28;5068424;28;1503;-54
2021/07/07 01:08:10;;;;;;;;;;;;;;;28.75;38.69;97220.06;5070415;28;1878;-54
2021/07/07 01:10:36;;;;;;;;;;;;;;;28.77;39.19;97222.59;5068393;28;1423;-54
2021/07/07 01:13:02;;;;;;;;;;;;;;;28.82;39.14;97217.63;5071382;28;1273;-54
2021/07/07 01:15:27;;;;;;;;;;;;;;;28.82;38.91;97222.94;5069330;28;1574;-54
2021/07/07 01:17:52;;;;;;;;;;;;;;;28.70;38.91;97217.03;5070579;28;1502;-54
2021/07/07 01:20:21;;;;;;;;;;;;;;;28.75;38.92;97225.34;5069893;28;1550;-54
2021/07/07 01:22:46;;;;;;;;;;;;;;;28.72;39.28;97217.72;5068622;28;1482;-55
2021/07/07 01:25:12;;;;;;;;;;;;;;;28.70;39.22;97208.25;5070037;28;1267;-54
2021/07/07 01:27:38;;;;;;;;;;;;;;;28.76;39.32;97207.66;5068365;28;1957;-54
2021/07/07 01:30:04;;;;;;;;;;;;;;;28.76;38.95;97218.25;5071325;28;1156;-53
2021/07/07 01:32:29;;;;;;;;;;;;;;;28.83;38.92;97230.75;5069516;28;1470;-54
2021/07/07 01:34:54;;;;;;;;;;;;;;;28.89;38.74;97224.03;5069323;28;1534;-54
2021/07/07 01:37:19;;;;;;;;;;;;;;;28.69;39.01;97222.50;5069921;28;1219;-54
2021/07/07 01:39:44;;;;;;;;;;;;;;;28.77;38.95;97225.25;5070249;28;1183;-55
2021/07/07 01:42:10;;;;;;;;;;;;;;;28.78;39.07;97221.59;5068443;28;1565;-55
2021/07/07 01:44:35;;;;;;;;;;;;;;;28.82;38.90;97220.28;5070668;28;1246;-54
2021/07/07 01:47:03;;;;;;;;;;;;;;;28.81;38.74;97208.84;5069615;28;1910;-54
2021/07/07 01:49:28;;;;;;;;;;;;;;;28.64;39.28;97204.34;5057162;28;1611;-55
2021/07/07 01:51:53;;;;;;;;;;;;;;;28.88;38.76;97201.97;5069187;28;1533;-54
2021/07/07 01:54:18;;;;;;;;;;;;;;;28.76;38.78;97191.72;5068866;28;1086;-54
2021/07/07 01:56:43;;;;;;;;;;;;;;;28.74;38.82;97188.38;5067638;28;1518;-55
2021/07/07 01:59:09;;;;;;;;;;;;;;;28.75;38.96;97196.16;5070213;28;1191;-55
2021/07/07 02:01:34;;;;;;;;;;;;;;;28.78;39.05;97206.50;5069157;28;1563;-54
2021/07/07 02:03:59;;;;;;;;;;;;;;;28.79;38.98;97210.81;5068287;28;1665;-54
2021/07/07 02:06:24;;;;;;;;;;;;;;;28.83;38.79;97217.47;5065905;28;1595;-55
2021/07/07 02:08:49;;;;;;;;;;;;;;;28.76;39.04;97212.97;5069292;28;1905;-54
2021/07/07 02:11:15;;;;;;;;;;;;;;;28.79;39.06;97220.59;5069339;28;1089;-54
2021/07/07 02:13:40;;;;;;;;;;;;;;;28.79;38.93;97224.09;5069050;28;1296;-54
2021/07/07 02:16:05;;;;;;;;;;;;;;;28.74;39.01;97225.50;5068122;28;1646;-54
2021/07/07 02:18:30;;;;;;;;;;;;;;;28.83;38.84;97229.91;5068030;28;1595;-54
2021/07/07 02:20:55;;;;;;;;;;;;;;;28.84;38.95;97232.44;5070258;28;1175;-55
2021/07/07 02:23:21;;;;;;;;;;;;;;;28.73;39.18;97229.16;5069004;28;1415;-54
2021/07/07 02:25:46;;;;;;;;;;;;;;;28.76;39.14;97228.88;5068968;28;1132;-54
2021/07/07 02:28:11;;;;;;;;;;;;;;;28.74;39.35;97225.50;5067112;28;1902;-55
2021/07/07 02:30:37;;;;;;;;;;;;;;;28.73;39.10;97229.16;5068933;28;1704;-55
2021/07/07 02:33:02;;;;;;;;;;;;;;;28.69;39.36;97239.25;5068504;28;1602;-55
2021/07/07 02:35:32;;;;;;;;;;;;;;;28.79;38.93;97242.66;5067736;28;1500;-54
2021/07/07 02:37:57;;;;;;;;;;;;;;;28.88;38.62;97246.25;5068264;28;1513;-55
2021/07/07 02:40:23;;;;;;;;;;;;;;;28.71;38.99;97247.06;5068345;28;1184;-54
2021/07/07 02:42:48;;;;;;;;;;;;;;;28.67;39.23;97245.66;5068018;28;1618;-54
2021/07/07 02:45:13;;;;;;;;;;;;;;;28.80;39.01;97240.84;5069869;28;1140;-55
2021/07/07 02:47:39;;;;;;;;;;;;;;;28.83;39.05;97240.53;5069610;28;1971;-55
2021/07/07 02:50:05;;;;;;;;;;;;;;;28.80;39.01;97252.31;5070415;28;1586;-54
2021/07/07 02:52:30;;;;;;;;;;;;;;;28.73;39.10;97259.19;5071974;28;1634;-52
2021/07/07 02:54:55;;;;;;;;;;;;;;;28.66;39.23;97260.75;5073218;28;1246;-54
2021/07/07 02:57:20;;;;;;;;;;;;;;;28.71;39.37;97270.94;5072706;28;1928;-54
2021/07/07 02:59:46;;;;;;;;;;;;;;;28.76;39.04;97272.16;5072636;28;1629;-54
2021/07/07 03:02:11;;;;;;;;;;;;;;;28.79;38.74;97269.22;5072121;28;1320;-55
2021/07/07 03:04:36;;;;;;;;;;;;;;;28.75;39.34;97273.13;5071116;28;1575;-54
2021/07/07 03:07:03;;;;;;;;;;;;;;;28.86;38.95;97272.94;5072114;28;1953;-54
2021/07/07 03:09:30;;;;;;;;;;;;;;;28.79;38.87;97273.69;5073072;28;1413;-53
2021/07/07 03:11:55;;;;;;;;;;;;;;;28.82;38.93;97271.56;5073074;28;1715;-55
2021/07/07 03:14:20;;;;;;;;;;;;;;;28.85;39.08;97267.78;5070617;28;1586;-54
2021/07/07 03:16:45;;;;;;;;;;;;;;;28.86;38.78;97264.16;5072349;28;1093;-55
2021/07/07 03:19:11;;;;;;;;;;;;;;;28.64;39.50;97260.91;5070604;28;1523;-54
2021/07/07 03:21:36;;;;;;;;;;;;;;;28.77;39.09;97270.34;5071051;28;1468;-54
2021/07/07 03:24:01;;;;;;;;;;;;;;;28.86;38.79;97272.94;5072306;28;1148;-54
2021/07/07 03:26:26;;;;;;;;;;;;;;;28.80;38.54;97267.38;5070215;28;1591;-51
2021/07/07 03:28:51;;;;;;;;;;;;;;;28.84;38.99;97274.91;5073334;28;1910;-54
2021/07/07 03:31:17;;;;;;;;;;;;;;;28.87;39.09;97271.13;5072709;28;1220;-55
2021/07/07 03:33:42;;;;;;;;;;;;;;;28.76;39.19;97260.72;5070750;28;1503;-55
2021/07/07 03:36:07;;;;;;;;;;;;;;;28.76;39.08;97260.72;5072390;28;1191;-54
2021/07/07 03:38:32;;;;;;;;;;;;;;;28.75;39.10;97265.16;5071823;28;1395;-54
2021/07/07 03:40:57;;;;;;;;;;;;;;;28.79;39.27;97265.72;5071671;28;1144;-55
2021/07/07 03:43:23;;;;;;;;;;;;;;;28.84;38.92;97252.84;5069574;28;1573;-55
2021/07/07 03:45:48;;;;;;;;;;;;;;;28.86;38.59;97256.19;5071467;28;1521;-54
2021/07/07 03:48:13;;;;;;;;;;;;;;;28.82;38.96;97245.00;5069932;28;1913;-55
2021/07/07 03:50:38;;;;;;;;;;;;;;;28.91;38.84;97256.59;5071184;28;1620;-55
2021/07/07 03:53:06;;;;;;;;;;;;;;;28.80;39.19;97256.78;5072821;28;1270;-55
2021/07/07 03:55:32;;;;;;;;;;;;;;;28.73;39.20;97258.34;5072148;28;1196;-54
2021/07/07 03:57:57;;;;;;;;;;;;;;;28.76;39.01;97256.25;5071709;28;1609;-55
2021/07/07 04:00:25;;;;;;;;;;;;;;;28.81;38.79;97255.78;5071803;28;1561;-55
2021/07/07 04:02:50;;;;;;;;;;;;;;;28.80;38.94;97257.59;5070280;28;1286;-54
2021/07/07 04:05:16;;;;;;;;;;;;;;;28.82;38.97;97281.34;5055514;28;1762;-54
2021/07/07 04:07:42;;;;;;;;;;;;;;;28.77;39.11;97294.25;5070057;28;1891;-55
2021/07/07 04:10:08;;;;;;;;;;;;;;;28.85;39.10;97297.00;5071294;28;1243;-55
2021/07/07 04:12:33;;;;;;;;;;;;;;;28.84;39.21;97304.13;5070843;28;1517;-55
2021/07/07 04:14:59;;;;;;;;;;;;;;;28.79;39.21;97310.84;5070977;28;1565;-55
2021/07/07 04:17:24;;;;;;;;;;;;;;;28.75;39.10;97312.09;5062430;28;1160;-54
2021/07/07 04:19:49;;;;;;;;;;;;;;;28.84;39.12;97312.09;5070337;28;1566;-54
2021/07/07 04:22:14;;;;;;;;;;;;;;;28.86;38.69;97301.31;5070440;28;1518;-55
2021/07/07 04:24:39;;;;;;;;;;;;;;;28.83;38.91;97290.97;5071211;28;1179;-54
2021/07/07 04:27:05;;;;;;;;;;;;;;;28.73;39.07;97293.69;5070274;28;1914;-54
2021/07/07 04:29:31;;;;;;;;;;;;;;;28.73;39.13;97300.81;5072448;28;1299;-55
2021/07/07 04:31:56;;;;;;;;;;;;;;;28.82;39.17;97306.06;5071655;28;1302;-55
2021/07/07 04:34:22;;;;;;;;;;;;;;;28.79;38.86;97309.03;5071175;28;1614;-54
2021/07/07 04:36:47;;;;;;;;;;;;;;;28.70;39.29;97320.53;5071231;28;1555;-54
2021/07/07 04:39:12;;;;;;;;;;;;;;;28.76;38.94;97332.38;5071026;28;1433;-54
2021/07/07 04:41:38;;;;;;;;;;;;;;;28.78;39.15;97343.69;5069926;28;1485;-55
2021/07/07 04:44:03;;;;;;;;;;;;;;;28.93;38.91;97342.25;5066836;28;1578;-54
2021/07/07 04:46:28;;;;;;;;;;;;;;;28.82;39.04;97337.06;5070531;28;1438;-54
2021/07/07 04:48:53;;;;;;;;;;;;;;;28.82;38.97;97337.06;5069521;28;1905;-55
2021/07/07 04:51:19;;;;;;;;;;;;;;;28.73;38.97;97333.47;5071189;28;1080;-55
2021/07/07 04:53:44;;;;;;;;;;;;;;;28.85;39.12;97329.69;5068959;28;1661;-55
2021/07/07 04:56:09;;;;;;;;;;;;;;;28.79;38.91;97324.94;5070549;28;1176;-55
2021/07/07 04:58:35;;;;;;;;;;;;;;;28.84;38.89;97321.88;5069287;28;1585;-54
2021/07/07 05:01:00;;;;;;;;;;;;;;;28.71;39.02;97321.34;5071030;28;1438;-54
2021/07/07 05:03:26;;;;;;;;;;;;;;;28.78;38.97;97327.75;5069665;28;1590;-55
2021/07/07 05:05:51;;;;;;;;;;;;;;;28.73;38.84;97330.84;5067661;28;1566;-55
2021/07/07 05:08:16;;;;;;;;;;;;;;;28.68;39.38;97333.09;5070194;28;1929;-55
2021/07/07 05:10:41;;;;;;;;;;;;;;;28.73;39.27;97341.44;5069604;28;1391;-54
2021/07/07 05:13:06;;;;;;;;;;;;;;;28.79;38.92;97345.34;5070282;28;1578;-54
2021/07/07 05:15:32;;;;;;;;;;;;;;;28.72;38.95;97353.03;5070309;28;1054;-54
2021/07/07 05:17:57;;;;;;;;;;;;;;;28.67;39.04;97352.63;5070785;28;1658;-54
2021/07/07 05:20:23;;;;;;;;;;;;;;;28.74;39.07;97358.19;5068872;28;1462;-54
2021/07/07 05:22:48;;;;;;;;;;;;;;;28.83;39.05;97347.53;5071151;28;1278;-55
2021/07/07 05:25:13;;;;;;;;;;;;;;;28.79;39.05;97345.34;5070501;28;1240;-54
2021/07/07 05:27:39;;;;;;;;;;;;;;;28.77;38.86;97342.00;5068501;28;1910;-54
2021/07/07 05:30:05;;;;;;;;;;;;;;;28.83;38.98;97349.38;5068768;28;1519;-54
2021/07/07 05:32:30;;;;;;;;;;;;;;;28.86;38.86;97357.88;5068638;28;1276;-54
2021/07/07 05:34:56;;;;;;;;;;;;;;;28.71;38.93;97353.19;5068792;28;1626;-55
2021/07/07 05:37:22;;;;;;;;;;;;;;;28.69;39.39;97358.66;5070659;28;1181;-54
2021/07/07 05:39:48;;;;;;;;;;;;;;;28.77;39.00;97352.63;5070070;28;1187;-55
2021/07/07 05:42:15;;;;;;;;;;;;;;;28.68;39.49;97354.34;5084151;22;2207;-54
2021/07/07 05:44:40;;;;;;;;;;;;;;;28.71;38.98;97358.50;5047972;28;1767;-55
2021/07/07 05:47:06;;;;;;;;;;;;;;;28.79;39.30;97367.41;5048649;28;1902;-54
2021/07/07 05:49:31;;;;;;;;;;;;;;;28.77;39.21;97374.69;5049359;28;1589;-54
2021/07/07 05:51:56;;;;;;;;;;;;;;;28.78;39.17;97372.88;5048449;28;1383;-56
2021/07/07 05:54:21;;;;;;;;;;;;;;;28.78;38.93;97378.19;5030580;28;1148;-56
2021/07/07 05:56:46;;;;;;;;;;;;;;;28.65;39.21;97389.94;5028643;28;1586;-56
2021/07/07 05:59:12;;;;;;;;;;;;;;;28.72;39.03;97386.72;5029937;28;1048;-54
2021/07/07 06:01:37;;;;;;;;;;;;;;;28.68;39.14;97395.97;5029081;28;1265;-56
2021/07/07 06:04:02;;;;;;;;;;;;;;;28.70;39.28;97391.34;5029023;28;1543;-56
2021/07/07 06:06:27;;;;;;;;;;;;;;;28.73;38.69;97388.38;5027318;28;1622;-56
2021/07/07 06:08:53;;;;;;;;;;;;;;;28.81;38.65;97386.66;5030460;28;1969;-54
2021/07/07 06:11:19;;;;;;;;;;;;;;;28.83;38.99;97397.13;5029358;28;1109;-55
2021/07/07 06:13:44;;;;;;;;;;;;;;;28.77;38.89;97393.28;5029472;28;1406;-56
2021/07/07 06:16:09;;;;;;;;;;;;;;;28.84;38.70;97402.31;5029309;28;1650;-56
2021/07/07 06:18:34;;;;;;;;;;;;;;;28.81;39.11;97397.28;5025726;28;1600;-56
2021/07/07 06:20:59;;;;;;;;;;;;;;;28.68;39.05;97404.75;5028565;28;1443;-56
2021/07/07 06:23:25;;;;;;;;;;;;;;;28.78;39.05;97404.72;5028781;28;1300;-55
2021/07/07 06:25:50;;;;;;;;;;;;;;;28.78;39.12;97410.84;5029472;28;1165;-54
2021/07/07 06:28:15;;;;;;;;;;;;;;;28.83;38.97;97410.41;5026763;28;1910;-56
2021/07/07 06:30:40;;;;;;;;;;;;;;;28.67;39.00;97413.66;5027770;28;1575;-55
2021/07/07 06:33:05;;;;;;;;;;;;;;;29.02;38.70;97409.56;5027411;28;1630;-56
2021/07/07 06:35:31;;;;;;;;;;;;;;;28.77;38.88;97425.13;5029609;28;1367;-54
2021/07/07 06:37:56;;;;;;;;;;;;;;;28.68;39.03;97423.34;5029876;28;1094;-56
2021/07/07 06:40:22;;;;;;;;;;;;;;;28.77;38.75;97419.81;5026147;28;1649;-56
2021/07/07 06:42:47;;;;;;;;;;;;;;;29.02;38.31;97405.06;4965956;28;1283;-56
2021/07/07 06:45:13;;;;;;;;;;;;;;;28.88;38.71;97414.31;5027690;28;1352;-56
2021/07/07 06:47:38;;;;;;;;;;;;;;;28.86;38.76;97416.28;5027039;28;1914;-56
2021/07/07 06:50:07;;;;;;;;;;;;;;;28.95;38.61;97403.16;5028026;28;1598;-55
2021/07/07 06:52:32;;;;;;;;;;;;;;;28.96;38.72;97399.50;5026494;28;1446;-54
2021/07/07 06:54:57;;;;;;;;;;;;;;;28.77;38.92;97411.00;5029964;28;1177;-56
2021/07/07 06:57:22;;;;;;;;;;;;;;;28.77;38.77;97416.31;5028894;28;2146;-55
2021/07/07 06:59:47;;;;;;;;;;;;;;;29.02;38.41;97409.56;5029459;28;1342;-54
2021/07/07 07:02:13;;;;;;;;;;;;;;;28.99;38.27;97413.31;5026447;28;1669;-56
2021/07/07 07:04:38;;;;;;;;;;;;;;;28.76;38.74;97415.47;5026816;28;1548;-55
2021/07/07 07:07:03;;;;;;;;;;;;;;;28.90;38.51;97417.69;5025558;28;1910;-56
2021/07/07 07:09:28;;;;;;;;;;;;;;;29.02;38.33;97402.41;5028671;28;1247;-54
2021/07/07 07:11:54;;;;;;;;;;;;;;;28.99;38.00;97404.50;5028264;28;1236;-56
2021/07/07 07:14:19;;;;;;;;;;;;;;;28.91;38.64;97416.72;5026861;28;1488;-56
2021/07/07 07:16:45;;;;;;;;;;;;;;;29.03;38.36;97409.41;5029930;28;1141;-54
2021/07/07 07:19:11;;;;;;;;;;;;;;;29.07;38.05;97408.13;5027276;28;1622;-56
2021/07/07 07:21:36;;;;;;;;;;;;;;;28.98;38.25;97402.84;5032309;28;1204;-56
2021/07/07 07:24:01;;;;;;;;;;;;;;;29.13;37.91;97407.53;5026347;28;1583;-56
2021/07/07 07:26:28;;;;;;;;;;;;;;;29.10;38.21;97409.66;5031012;28;1156;-56
2021/07/07 07:28:53;;;;;;;;;;;;;;;29.04;38.04;97412.88;5027839;28;1948;-55
2021/07/07 07:31:19;;;;;;;;;;;;;;;29.06;38.23;97417.06;5029444;28;1196;-56
2021/07/07 07:33:44;;;;;;;;;;;;;;;28.92;38.79;97420.22;5026901;28;1554;-56
2021/07/07 07:36:10;;;;;;;;;;;;;;;28.89;38.59;97423.94;5031620;28;1477;-55
2021/07/07 07:38:44;;;;;;;;;;;;;;;29.03;38.62;97435.13;5033853;28;1203;-55
2021/07/07 07:41:09;;;;;;;;;;;;;;;28.98;38.49;97440.84;5031918;28;1177;-54
2021/07/07 07:43:34;;;;;;;;;;;;;;;29.09;38.35;97443.34;5029374;28;1693;-55
2021/07/07 07:46:00;;;;;;;;;;;;;;;28.96;38.69;97453.44;5029756;28;1486;-56
2021/07/07 07:48:25;;;;;;;;;;;;;;;29.09;38.02;97456.63;5030049;28;1915;-55
2021/07/07 07:50:50;;;;;;;;;;;;;;;29.03;38.01;97448.38;5031394;28;1368;-54
2021/07/07 07:53:15;;;;;;;;;;;;;;;29.03;38.13;97459.84;5030939;28;1405;-56
2021/07/07 07:55:41;;;;;;;;;;;;;;;29.09;37.98;97466.41;5032440;28;1281;-56
2021/07/07 07:58:06;;;;;;;;;;;;;;;28.79;38.78;97456.81;5028479;28;1800;-56
2021/07/07 08:00:31;;;;;;;;;;;;;;;28.97;38.36;97456.94;5029550;28;1784;-56
2021/07/07 08:02:57;;;;;;;;;;;;;;;28.94;38.66;97462.53;5031598;28;1602;-54
2021/07/07 08:05:22;;;;;;;;;;;;;;;28.64;39.59;97459.06;5028663;28;1420;-55
2021/07/07 08:07:47;;;;;;;;;;;;;;;28.64;39.43;97462.56;5031250;28;1968;-55
2021/07/07 08:10:13;;;;;;;;;;;;;;;28.61;39.25;97477.94;5030817;28;1247;-56
2021/07/07 08:12:39;;;;;;;;;;;;;;;28.61;39.55;97475.28;5031040;28;1456;-56
2021/07/07 08:15:04;;;;;;;;;;;;;;;28.60;39.53;97474.47;5031473;28;1250;-55
2021/07/07 08:17:30;;;;;;;;;;;;;;;28.73;39.15;97476.78;5030682;28;1476;-55
2021/07/07 08:19:55;;;;;;;;;;;;;;;28.82;39.00;97473.28;5030815;28;1559;-56
2021/07/07 08:22:20;;;;;;;;;;;;;;;28.74;39.42;97475.81;5030972;28;1299;-56
2021/07/07 08:24:45;;;;;;;;;;;;;;;28.71;39.20;97470.81;5031115;28;1479;-55
2021/07/07 08:27:11;;;;;;;;;;;;;;;28.83;39.21;97471.47;5030249;28;1898;-56
2021/07/07 08:29:36;;;;;;;;;;;;;;;28.68;39.36;97480.88;5030250;28;1249;-56
2021/07/07 08:32:05;;;;;;;;;;;;;;;28.76;39.15;97488.97;5031468;28;1347;-55
2021/07/07 08:34:30;;;;;;;;;;;;;;;28.90;38.75;97492.00;5029925;28;1551;-54
2021/07/07 08:36:55;;;;;;;;;;;;;;;28.77;38.86;97494.13;5030650;28;1450;-55
2021/07/07 08:39:21;;;;;;;;;;;;;;;28.96;38.65;97492.44;5030359;28;1336;-57
2021/07/07 08:41:47;;;;;;;;;;;;;;;28.74;39.03;97498.84;5029468;28;1559;-55
2021/07/07 08:44:12;;;;;;;;;;;;;;;29.03;38.30;97502.31;5030968;28;1155;-56
2021/07/07 08:46:37;;;;;;;;;;;;;;;29.06;38.00;97503.84;5032343;28;1220;-55
2021/07/07 08:49:02;;;;;;;;;;;;;;;29.03;38.34;97499.69;5029456;28;1981;-57
2021/07/07 08:51:27;;;;;;;;;;;;;;;28.73;38.89;97507.81;5030693;28;1157;-56
2021/07/07 08:53:53;;;;;;;;;;;;;;;28.94;38.24;97516.47;5028275;28;1526;-55
2021/07/07 08:56:18;;;;;;;;;;;;;;;28.90;38.19;97521.22;5031389;28;1089;-57
2021/07/07 08:58:43;;;;;;;;;;;;;;;28.91;38.61;97520.25;5029733;28;1745;-56
2021/07/07 09:01:08;;;;;;;;;;;;;;;28.96;38.03;97517.16;5030894;28;1294;-56
2021/07/07 09:03:34;;;;;;;;;;;;;;;28.82;38.40;97512.25;5027802;28;1745;-55
2021/07/07 09:06:01;;;;;;;;;;;;;;;28.90;38.40;97517.72;5030140;28;1599;-56
2021/07/07 09:08:33;;;;;;;;;;;;;;;28.72;38.88;97524.72;5030887;28;1914;-55
2021/07/07 09:11:17;;;;;;;;;;;;;;;28.94;38.54;97520.94;5030233;28;1145;-57
2021/07/07 09:13:42;;;;;;;;;;;;;;;28.87;38.94;97531.25;5031392;28;1308;-56
2021/07/07 09:16:11;;;;;;;;;;;;;;;29.00;38.35;97533.66;5028971;28;1602;-57
2021/07/07 09:18:36;;;;;;;;;;;;;;;28.94;38.42;97536.88;5029734;28;1594;-57
2021/07/07 09:21:02;;;;;;;;;;;;;;;28.91;38.57;97552.13;5030642;28;1161;-56
2021/07/07 09:23:27;;;;;;;;;;;;;;;28.92;38.54;97560.91;5030770;28;1299;-55
2021/07/07 09:25:56;;;;;;;;;;;;;;;28.90;38.27;97566.34;5029857;28;1111;-56
2021/07/07 09:28:34;;;;;;;;;;;;;;;29.02;38.39;97564.38;5045054;28;1905;-57
2021/07/07 09:31:07;;;;;;;;;;;;;;;28.97;38.45;97566.63;5030594;28;1240;-55
2021/07/07 09:33:42;;;;;;;;;;;;;;;28.80;39.04;97575.28;5027868;28;1622;-56
2021/07/07 09:36:15;;;;;;;;;;;;;;;28.74;40.12;97565.22;5018345;28;3009;-54
2021/07/07 09:38:40;;;;;;;;;;;;;;;28.76;39.41;97572.06;5026772;28;1923;-57
2021/07/07 09:41:12;;;;;;;;;;;;;;;28.57;40.12;97570.25;5023696;28;2248;-53
2021/07/07 09:43:43;;;;;;;;;;;;;;;28.52;40.01;97561.88;5027035;28;1955;-55
2021/07/07 09:46:08;;;;;;;;;;;;;;;28.73;38.95;97553.75;5022878;28;2063;-53
2021/07/07 09:48:37;;;;;;;;;;;;;;;28.58;39.40;97555.16;5025640;28;1915;-55
2021/07/07 09:51:02;;;;;;;;;;;;;;;29.54;37.85;97556.84;5026993;28;1966;-53
2021/07/07 09:53:28;;;;;;;;;;;;;;;29.72;37.42;97557.75;5030940;28;2166;-50
2021/07/07 09:55:53;;;;;;;;;;;;;;;28.82;39.23;97566.19;5029073;28;2367;-53
2021/07/07 09:58:18;;;;;;;;;;;;;;;28.84;39.49;97574.03;5021826;28;1934;-53
2021/07/07 10:00:43;;;;;;;;;;;;;;;27.70;41.85;97569.22;5024659;28;9904;-58
2021/07/07 10:03:08;;;;;;;;;;;;;;;27.44;42.37;97579.41;5023475;28;1950;-53
2021/07/07 10:05:38;;;;;;;;;;;;;;;28.34;40.12;97582.94;5024136;28;1928;-58
2021/07/07 10:08:04;;;;;;;;;;;;;;;28.51;39.78;97581.41;5026094;28;1888;-57
2021/07/07 10:10:29;;;;;;;;;;;;;;;28.61;39.91;97573.47;5022810;28;1872;-56
2021/07/07 10:12:54;;;;;;;;;;;;;;;28.35;41.15;97567.84;5019894;28;4212;-60
2021/07/07 10:15:20;;;;;;;;;;;;;;;27.31;42.67;97563.72;5023165;28;1935;-58
2021/07/07 10:17:45;;;;;;;;;;;;;;;26.85;43.48;97561.44;5024604;28;2103;-55
2021/07/07 10:20:15;;;;;;;;;;;;;;;26.91;43.50;97553.84;5024368;28;2236;-51
2021/07/07 10:22:40;;;;;;;;;;;;;;;28.48;40.54;97554.34;5022999;28;1939;-55
2021/07/07 10:25:12;;;;;;;;;;;;;;;29.17;38.45;97549.69;5027012;28;1931;-55
2021/07/07 10:27:37;;;;;;;;;;;;;;;28.70;39.34;97545.25;5024072;28;1995;-60
2021/07/07 10:30:03;;;;;;;;;;;;;;;29.10;38.71;97542.44;5024433;28;2003;-61
2021/07/07 10:32:29;;;;;;;;;;;;;;;28.39;40.45;97555.16;5024095;28;1941;-58
2021/07/07 10:34:54;;;;;;;;;;;;;;;29.73;37.42;97556.78;5023719;28;1958;-60
2021/07/07 10:37:23;;;;;;;;;;;;;;;30.06;36.74;97557.16;5024956;28;1965;-58
2021/07/07 10:39:49;;;;;;;;;;;;;;;30.39;36.14;97560.19;5025737;28;2193;-57
2021/07/07 10:42:15;;;;;;;;;;;;;;;29.15;38.56;97559.63;5022062;28;2208;-58
2021/07/07 10:44:40;;;;;;;;;;;;;;;29.30;38.25;97559.97;5026627;28;2010;-57
2021/07/07 10:47:12;;;;;;;;;;;;;;;29.36;37.98;97562.06;5023946;28;1910;-53
2021/07/07 10:49:40;;;;;;;;;;;;;;;29.34;38.16;97568.50;5023262;28;1931;-55
2021/07/07 10:52:07;;;;;;;;;;;;;;;29.91;36.84;97567.44;5022733;28;4053;-54
2021/07/07 10:54:33;;;;;;;;;;;;;;;30.08;36.64;97567.63;5024934;28;2200;-53
2021/07/07 10:56:59;;;;;;;;;;;;;;;29.52;37.60;97563.28;5025478;28;2010;-58
2021/07/07 10:59:31;;;;;;;;;;;;;;;28.86;38.90;97575.56;5024223;28;2025;-53
2021/07/07 11:01:57;;;;;;;;;;;;;;;29.71;37.32;97566.72;5024836;28;1971;-52
2021/07/07 11:04:31;;;;;;;;;;;;;;;29.64;37.47;97567.44;5024714;28;2053;-56
2021/07/07 11:06:56;;;;;;;;;;;;;;;29.28;38.21;97571.72;5022631;28;1966;-55
2021/07/07 11:09:25;;;;;;;;;;;;;;;29.69;37.29;97571.31;5023386;28;2111;-55
2021/07/07 11:11:50;;;;;;;;;;;;;;;29.44;38.00;97580.75;5027973;28;2162;-54
2021/07/07 11:14:24;;;;;;;;;;;;;;;29.57;37.66;97582.31;5023774;28;1920;-55
2021/07/07 11:16:56;;;;;;;;;;;;;;;29.63;37.24;97582.56;5028552;28;2123;-55
2021/07/07 11:19:54;;;;;;;;;;;;;;;29.33;38.14;97594.22;5025949;28;1966;-55
2021/07/07 11:22:19;;;;;;;;;;;;;;;29.50;37.71;97584.69;4994850;28;2024;-51
2021/07/07 11:24:45;;;;;;;;;;;;;;;29.19;38.37;97590.19;5027619;28;1927;-53
2021/07/07 11:27:10;;;;;;;;;;;;;;;29.62;37.41;97578.19;5026704;28;1927;-54
2021/07/07 11:29:35;;;;;;;;;;;;;;;29.35;37.96;97575.47;5024935;28;4586;-53
2021/07/07 11:32:01;;;;;;;;;;;;;;;29.39;37.89;97580.38;5027145;28;2224;-53
2021/07/07 11:34:46;;;;;;;;;;;;;;;29.33;37.99;97578.28;5024561;28;2065;-54
2021/07/07 11:37:11;;;;;;;;;;;;;;;29.19;38.22;97576.09;5027524;28;2481;-55
2021/07/07 11:39:36;;;;;;;;;;;;;;;29.09;38.85;97570.81;5028063;28;1887;-55
2021/07/07 11:42:05;;;;;;;;;;;;;;;29.64;37.56;97562.97;5027208;28;2498;-55
2021/07/07 11:44:40;;;;;;;;;;;;;;;29.51;37.47;97564.28;5025872;28;2138;-52
2021/07/07 11:47:05;;;;;;;;;;;;;;;29.56;37.66;97562.88;5029278;28;2017;-53
2021/07/07 11:49:31;;;;;;;;;;;;;;;29.51;37.86;97566.94;5026792;28;2146;-53
2021/07/07 11:52:03;;;;;;;;;;;;;;;27.68;42.01;97573.81;5028986;28;2538;-55
2021/07/07 11:54:28;;;;;;;;;;;;;;;28.96;39.08;97566.75;5025509;28;1931;-51
2021/07/07 11:56:59;;;;;;;;;;;;;;;30.08;36.85;97564.97;5021828;28;2230;-50
2021/07/07 11:59:24;;;;;;;;;;;;;;;30.16;36.36;97562.44;5025706;28;2166;-51
2021/07/07 12:01:55;;;;;;;;;;;;;;;30.30;35.93;97568.06;5028821;28;2217;-49
2021/07/07 12:04:24;;;;;;;;;;;;;;;29.73;37.23;97564.75;5023991;28;1923;-52
2021/07/07 12:06:49;;;;;;;;;;;;;;;30.63;35.63;97579.03;5026914;28;2796;-50
2021/07/07 12:09:18;;;;;;;;;;;;;;;30.77;35.25;97575.88;5025606;28;1967;-50
2021/07/07 12:11:53;;;;;;;;;;;;;;;30.09;36.57;97575.47;5027127;28;1918;-50
2021/07/07 12:14:19;;;;;;;;;;;;;;;29.82;37.23;97586.13;5024218;28;1936;-49
2021/07/07 12:16:45;;;;;;;;;;;;;;;29.94;36.90;97587.56;5025831;28;1966;-52
2021/07/07 12:19:11;;;;;;;;;;;;;;;30.42;36.15;97581.19;5025921;28;1969;-48
2021/07/07 12:21:42;;;;;;;;;;;;;;;30.02;36.49;97577.91;5024966;28;2002;-51
2021/07/07 12:24:08;;;;;;;;;;;;;;;30.20;36.37;97575.28;5024040;28;2042;-50
2021/07/07 12:26:34;;;;;;;;;;;;;;;30.23;36.27;97574.97;5026758;28;2079;-49
2021/07/07 12:29:00;;;;;;;;;;;;;;;30.19;35.97;97578.94;5026588;28;1963;-51
2021/07/07 12:31:27;;;;;;;;;;;;;;;30.31;36.18;97571.56;5027919;28;2019;-52
2021/07/07 12:33:56;;;;;;;;;;;;;;;30.85;34.91;97567.09;5025733;28;2202;-50
2021/07/07 12:36:30;;;;;;;;;;;;;;;30.22;36.50;97569.81;5026811;28;1934;-50
2021/07/07 12:38:56;;;;;;;;;;;;;;;30.48;35.91;97569.91;5025875;28;1982;-51
2021/07/07 12:41:30;;;;;;;;;;;;;;;30.42;35.82;97566.03;5027155;28;1927;-51
2021/07/07 12:43:56;;;;;;;;;;;;;;;30.51;35.60;97561.63;5025543;28;2625;-53
2021/07/07 12:46:22;;;;;;;;;;;;;;;30.03;36.66;97562.78;5024866;28;1871;-51
2021/07/07 12:48:48;;;;;;;;;;;;;;;30.27;36.10;97559.56;5025185;28;2030;-50
2021/07/07 12:51:23;;;;;;;;;;;;;;;30.25;35.90;97565.03;5025393;28;2197;-51